sensor_id;sensor_type;location;lat;lon;timestamp;P1;durP1;ratioP1;P2;durP2;ratioP2
12556;SDS011;6344;49.932;8.308;2022-09-12T00:00:50;26.33;;;21.37;;
12556;SDS011;6344;49.932;8.308;2022-09-12T00:03:18;31.00;;;21.80;;
12556;SDS011;6344;49.932;8.308;2022-09-12T00:05:45;28.77;;;19.83;;
12556;SDS011;6344;49.932;8.308;2022-09-12T00:08:13;25.37;;;20.23;;
12556;SDS011;6344;49.932;8.308;2022-09-12T00:10:40;33.97;;;22.50;;
12556;SDS011;6344;49.932;8.308;2022-09-12T00:13:08;29.07;;;20.90;;
12556;SDS011;6344;49.932;8.308;2022-09-12T00:15:37;30.37;;;21.33;;
12556;SDS011;6344;49.932;8.308;2022-09-12T00:18:04;26.10;;;20.43;;
12556;SDS011;6344;49.932;8.308;2022-09-12T00:20:32;32.40;;;22.07;;
12556;SDS011;6344;49.932;8.308;2022-09-12T00:22:59;29.77;;;20.83;;
12556;SDS011;6344;49.932;8.308;2022-09-12T00:25:25;28.13;;;21.67;;
12556;SDS011;6344;49.932;8.308;2022-09-12T00:27:54;29.80;;;21.20;;
12556;SDS011;6344;49.932;8.308;2022-09-12T00:30:21;27.50;;;20.90;;
12556;SDS011;6344;49.932;8.308;2022-09-12T00:32:48;28.63;;;21.27;;
12556;SDS011;6344;49.932;8.308;2022-09-12T00:35:15;29.27;;;21.30;;
12556;SDS011;6344;49.932;8.308;2022-09-12T00:37:46;35.33;;;22.60;;
12556;SDS011;6344;49.932;8.308;2022-09-12T00:40:13;30.23;;;21.83;;
12556;SDS011;6344;49.932;8.308;2022-09-12T00:42:39;31.57;;;23.93;;
12556;SDS011;6344;49.932;8.308;2022-09-12T00:45:07;32.77;;;22.10;;
12556;SDS011;6344;49.932;8.308;2022-09-12T00:47:48;34.40;;;25.53;;
12556;SDS011;6344;49.932;8.308;2022-09-12T00:50:15;32.50;;;21.40;;
12556;SDS011;6344;49.932;8.308;2022-09-12T00:52:44;42.97;;;26.93;;
12556;SDS011;6344;49.932;8.308;2022-09-12T00:55:15;38.20;;;25.73;;
12556;SDS011;6344;49.932;8.308;2022-09-12T00:57:47;35.90;;;24.83;;
12556;SDS011;6344;49.932;8.308;2022-09-12T01:00:18;39.20;;;25.60;;
12556;SDS011;6344;49.932;8.308;2022-09-12T01:02:48;31.43;;;21.57;;
12556;SDS011;6344;49.932;8.308;2022-09-12T01:05:18;31.97;;;22.83;;
12556;SDS011;6344;49.932;8.308;2022-09-12T01:07:47;34.13;;;22.90;;
12556;SDS011;6344;49.932;8.308;2022-09-12T01:10:15;31.00;;;23.20;;
12556;SDS011;6344;49.932;8.308;2022-09-12T01:12:42;31.23;;;24.77;;
12556;SDS011;6344;49.932;8.308;2022-09-12T01:15:10;33.83;;;25.53;;
12556;SDS011;6344;49.932;8.308;2022-09-12T01:17:40;33.70;;;23.90;;
12556;SDS011;6344;49.932;8.308;2022-09-12T01:23:47;30.23;;;22.60;;
12556;SDS011;6344;49.932;8.308;2022-09-12T01:26:41;37.60;;;27.30;;
12556;SDS011;6344;49.932;8.308;2022-09-12T01:29:23;35.10;;;26.63;;
12556;SDS011;6344;49.932;8.308;2022-09-12T01:32:02;38.57;;;26.47;;
12556;SDS011;6344;49.932;8.308;2022-09-12T01:34:35;41.17;;;27.60;;
12556;SDS011;6344;49.932;8.308;2022-09-12T01:37:10;37.10;;;26.57;;
12556;SDS011;6344;49.932;8.308;2022-09-12T01:39:44;36.63;;;26.37;;
12556;SDS011;6344;49.932;8.308;2022-09-12T01:42:21;36.90;;;27.13;;
12556;SDS011;6344;49.932;8.308;2022-09-12T01:44:53;36.80;;;26.60;;
12556;SDS011;6344;49.932;8.308;2022-09-12T01:47:29;34.63;;;26.90;;
12556;SDS011;6344;49.932;8.308;2022-09-12T01:50:05;40.53;;;27.33;;
12556;SDS011;6344;49.932;8.308;2022-09-12T01:52:35;41.97;;;28.60;;
12556;SDS011;6344;49.932;8.308;2022-09-12T01:55:08;46.33;;;28.57;;
12556;SDS011;6344;49.932;8.308;2022-09-12T01:57:39;38.33;;;26.70;;
12556;SDS011;6344;49.932;8.308;2022-09-12T02:00:11;34.00;;;25.10;;
12556;SDS011;6344;49.932;8.308;2022-09-12T02:02:40;37.73;;;26.23;;
12556;SDS011;6344;49.932;8.308;2022-09-12T02:05:15;33.07;;;24.47;;
12556;SDS011;6344;49.932;8.308;2022-09-12T02:07:46;36.50;;;25.60;;
12556;SDS011;6344;49.932;8.308;2022-09-12T02:10:17;36.83;;;25.90;;
12556;SDS011;6344;49.932;8.308;2022-09-12T02:12:47;40.07;;;27.60;;
12556;SDS011;6344;49.932;8.308;2022-09-12T02:15:19;40.50;;;27.23;;
12556;SDS011;6344;49.932;8.308;2022-09-12T02:17:50;39.07;;;28.90;;
12556;SDS011;6344;49.932;8.308;2022-09-12T02:20:21;40.40;;;27.67;;
12556;SDS011;6344;49.932;8.308;2022-09-12T02:22:50;36.50;;;26.90;;
12556;SDS011;6344;49.932;8.308;2022-09-12T02:25:19;40.83;;;25.87;;
12556;SDS011;6344;49.932;8.308;2022-09-12T02:27:48;36.97;;;25.90;;
12556;SDS011;6344;49.932;8.308;2022-09-12T02:30:18;38.00;;;28.00;;
12556;SDS011;6344;49.932;8.308;2022-09-12T02:32:51;38.27;;;26.47;;
12556;SDS011;6344;49.932;8.308;2022-09-12T02:35:25;40.87;;;28.70;;
12556;SDS011;6344;49.932;8.308;2022-09-12T02:37:59;39.53;;;27.67;;
12556;SDS011;6344;49.932;8.308;2022-09-12T02:40:31;40.70;;;27.27;;
12556;SDS011;6344;49.932;8.308;2022-09-12T02:42:59;41.70;;;27.93;;
12556;SDS011;6344;49.932;8.308;2022-09-12T02:45:28;42.07;;;28.60;;
12556;SDS011;6344;49.932;8.308;2022-09-12T02:47:58;47.10;;;30.37;;
12556;SDS011;6344;49.932;8.308;2022-09-12T02:50:29;50.70;;;31.27;;
12556;SDS011;6344;49.932;8.308;2022-09-12T02:52:57;49.50;;;31.27;;
12556;SDS011;6344;49.932;8.308;2022-09-12T02:55:28;45.77;;;30.87;;
12556;SDS011;6344;49.932;8.308;2022-09-12T02:57:56;49.17;;;30.20;;
12556;SDS011;6344;49.932;8.308;2022-09-12T03:00:23;45.90;;;29.13;;
12556;SDS011;6344;49.932;8.308;2022-09-12T03:02:56;45.83;;;31.23;;
12556;SDS011;6344;49.932;8.308;2022-09-12T03:05:35;45.43;;;27.47;;
12556;SDS011;6344;49.932;8.308;2022-09-12T03:14:10;50.80;;;30.07;;
12556;SDS011;6344;49.932;8.308;2022-09-12T03:16:50;44.03;;;28.50;;
12556;SDS011;6344;49.932;8.308;2022-09-12T03:19:23;49.60;;;30.37;;
12556;SDS011;6344;49.932;8.308;2022-09-12T03:21:57;39.67;;;26.87;;
12556;SDS011;6344;49.932;8.308;2022-09-12T03:24:29;43.53;;;28.00;;
12556;SDS011;6344;49.932;8.308;2022-09-12T03:27:00;43.87;;;27.77;;
12556;SDS011;6344;49.932;8.308;2022-09-12T03:29:32;47.80;;;30.83;;
12556;SDS011;6344;49.932;8.308;2022-09-12T03:32:00;52.47;;;30.97;;
12556;SDS011;6344;49.932;8.308;2022-09-12T03:34:28;47.67;;;29.27;;
12556;SDS011;6344;49.932;8.308;2022-09-12T03:36:55;46.50;;;29.50;;
12556;SDS011;6344;49.932;8.308;2022-09-12T03:39:24;55.10;;;31.10;;
12556;SDS011;6344;49.932;8.308;2022-09-12T03:41:51;43.23;;;28.90;;
12556;SDS011;6344;49.932;8.308;2022-09-12T03:44:18;50.17;;;31.37;;
12556;SDS011;6344;49.932;8.308;2022-09-12T03:46:45;55.10;;;35.53;;
12556;SDS011;6344;49.932;8.308;2022-09-12T03:49:12;46.70;;;31.17;;
12556;SDS011;6344;49.932;8.308;2022-09-12T03:51:40;51.83;;;33.00;;
12556;SDS011;6344;49.932;8.308;2022-09-12T03:54:08;55.43;;;33.27;;
12556;SDS011;6344;49.932;8.308;2022-09-12T03:56:34;48.90;;;32.20;;
12556;SDS011;6344;49.932;8.308;2022-09-12T03:59:03;48.67;;;33.40;;
12556;SDS011;6344;49.932;8.308;2022-09-12T04:01:31;60.23;;;36.50;;
12556;SDS011;6344;49.932;8.308;2022-09-12T04:03:58;53.10;;;32.73;;
12556;SDS011;6344;49.932;8.308;2022-09-12T04:06:25;51.00;;;32.60;;
12556;SDS011;6344;49.932;8.308;2022-09-12T04:08:53;59.70;;;35.37;;
12556;SDS011;6344;49.932;8.308;2022-09-12T04:11:21;60.43;;;35.77;;
12556;SDS011;6344;49.932;8.308;2022-09-12T04:13:49;55.07;;;32.47;;
12556;SDS011;6344;49.932;8.308;2022-09-12T04:16:16;52.80;;;33.70;;
12556;SDS011;6344;49.932;8.308;2022-09-12T04:18:43;57.17;;;35.40;;
12556;SDS011;6344;49.932;8.308;2022-09-12T04:21:11;67.30;;;35.60;;
12556;SDS011;6344;49.932;8.308;2022-09-12T04:23:39;59.33;;;35.80;;
12556;SDS011;6344;49.932;8.308;2022-09-12T04:26:07;58.03;;;35.27;;
12556;SDS011;6344;49.932;8.308;2022-09-12T04:28:35;55.80;;;35.00;;
12556;SDS011;6344;49.932;8.308;2022-09-12T04:31:03;59.80;;;35.20;;
12556;SDS011;6344;49.932;8.308;2022-09-12T04:33:31;58.57;;;33.77;;
12556;SDS011;6344;49.932;8.308;2022-09-12T04:36:01;59.57;;;36.13;;
12556;SDS011;6344;49.932;8.308;2022-09-12T04:38:29;59.60;;;34.40;;
12556;SDS011;6344;49.932;8.308;2022-09-12T04:40:56;66.20;;;37.20;;
12556;SDS011;6344;49.932;8.308;2022-09-12T04:43:24;65.33;;;36.03;;
12556;SDS011;6344;49.932;8.308;2022-09-12T04:45:51;64.07;;;35.17;;
12556;SDS011;6344;49.932;8.308;2022-09-12T04:48:18;50.50;;;31.83;;
12556;SDS011;6344;49.932;8.308;2022-09-12T04:50:44;62.50;;;34.33;;
12556;SDS011;6344;49.932;8.308;2022-09-12T04:53:11;65.27;;;33.50;;
12556;SDS011;6344;49.932;8.308;2022-09-12T04:55:38;58.10;;;34.23;;
12556;SDS011;6344;49.932;8.308;2022-09-12T04:58:04;68.57;;;36.60;;
12556;SDS011;6344;49.932;8.308;2022-09-12T05:00:33;60.90;;;32.97;;
12556;SDS011;6344;49.932;8.308;2022-09-12T05:02:59;54.20;;;32.27;;
12556;SDS011;6344;49.932;8.308;2022-09-12T05:05:26;61.07;;;32.60;;
12556;SDS011;6344;49.932;8.308;2022-09-12T05:07:53;65.83;;;37.43;;
12556;SDS011;6344;49.932;8.308;2022-09-12T05:10:20;62.90;;;35.27;;
12556;SDS011;6344;49.932;8.308;2022-09-12T05:12:47;60.17;;;33.03;;
12556;SDS011;6344;49.932;8.308;2022-09-12T05:15:14;54.60;;;33.63;;
12556;SDS011;6344;49.932;8.308;2022-09-12T05:17:43;49.23;;;30.67;;
12556;SDS011;6344;49.932;8.308;2022-09-12T05:20:09;53.30;;;33.40;;
12556;SDS011;6344;49.932;8.308;2022-09-12T05:22:37;54.10;;;31.93;;
12556;SDS011;6344;49.932;8.308;2022-09-12T05:25:04;49.33;;;32.80;;
12556;SDS011;6344;49.932;8.308;2022-09-12T05:27:32;51.53;;;33.43;;
12556;SDS011;6344;49.932;8.308;2022-09-12T05:29:58;50.20;;;31.30;;
12556;SDS011;6344;49.932;8.308;2022-09-12T05:32:25;50.80;;;31.10;;
12556;SDS011;6344;49.932;8.308;2022-09-12T05:34:57;53.57;;;33.87;;
12556;SDS011;6344;49.932;8.308;2022-09-12T05:37:24;55.53;;;34.07;;
12556;SDS011;6344;49.932;8.308;2022-09-12T05:39:50;56.47;;;33.70;;
12556;SDS011;6344;49.932;8.308;2022-09-12T05:42:17;50.40;;;31.33;;
12556;SDS011;6344;49.932;8.308;2022-09-12T05:44:44;53.70;;;32.93;;
12556;SDS011;6344;49.932;8.308;2022-09-12T05:47:10;45.83;;;31.10;;
12556;SDS011;6344;49.932;8.308;2022-09-12T05:49:37;58.57;;;35.03;;
12556;SDS011;6344;49.932;8.308;2022-09-12T05:52:05;55.10;;;34.43;;
12556;SDS011;6344;49.932;8.308;2022-09-12T05:54:32;55.50;;;34.03;;
12556;SDS011;6344;49.932;8.308;2022-09-12T05:56:59;55.03;;;33.73;;
12556;SDS011;6344;49.932;8.308;2022-09-12T05:59:26;49.87;;;35.10;;
12556;SDS011;6344;49.932;8.308;2022-09-12T06:01:52;52.10;;;33.60;;
12556;SDS011;6344;49.932;8.308;2022-09-12T06:04:19;54.93;;;33.50;;
12556;SDS011;6344;49.932;8.308;2022-09-12T06:06:47;55.83;;;32.73;;
12556;SDS011;6344;49.932;8.308;2022-09-12T06:09:16;55.57;;;33.03;;
12556;SDS011;6344;49.932;8.308;2022-09-12T06:11:43;54.60;;;32.57;;
12556;SDS011;6344;49.932;8.308;2022-09-12T06:14:11;48.30;;;31.57;;
12556;SDS011;6344;49.932;8.308;2022-09-12T06:16:39;45.00;;;31.27;;
12556;SDS011;6344;49.932;8.308;2022-09-12T06:19:10;46.20;;;31.57;;
12556;SDS011;6344;49.932;8.308;2022-09-12T06:21:39;49.77;;;32.00;;
12556;SDS011;6344;49.932;8.308;2022-09-12T06:24:06;42.57;;;29.93;;
12556;SDS011;6344;49.932;8.308;2022-09-12T06:26:34;50.63;;;32.47;;
12556;SDS011;6344;49.932;8.308;2022-09-12T06:29:01;40.30;;;28.57;;
12556;SDS011;6344;49.932;8.308;2022-09-12T06:31:29;38.83;;;27.10;;
12556;SDS011;6344;49.932;8.308;2022-09-12T06:33:58;36.10;;;27.70;;
12556;SDS011;6344;49.932;8.308;2022-09-12T06:36:26;31.90;;;24.97;;
12556;SDS011;6344;49.932;8.308;2022-09-12T06:38:54;26.80;;;22.77;;
12556;SDS011;6344;49.932;8.308;2022-09-12T06:41:22;26.47;;;22.27;;
12556;SDS011;6344;49.932;8.308;2022-09-12T06:43:51;22.10;;;19.80;;
12556;SDS011;6344;49.932;8.308;2022-09-12T06:46:18;23.80;;;21.00;;
12556;SDS011;6344;49.932;8.308;2022-09-12T06:48:45;20.37;;;18.27;;
12556;SDS011;6344;49.932;8.308;2022-09-12T06:51:13;20.83;;;17.87;;
12556;SDS011;6344;49.932;8.308;2022-09-12T06:53:41;20.50;;;18.40;;
12556;SDS011;6344;49.932;8.308;2022-09-12T06:56:10;19.23;;;17.33;;
12556;SDS011;6344;49.932;8.308;2022-09-12T06:58:38;18.33;;;16.43;;
12556;SDS011;6344;49.932;8.308;2022-09-12T07:17:57;24.27;;;22.17;;
12556;SDS011;6344;49.932;8.308;2022-09-12T07:20:24;19.93;;;18.03;;
12556;SDS011;6344;49.932;8.308;2022-09-12T07:22:51;18.47;;;16.87;;
12556;SDS011;6344;49.932;8.308;2022-09-12T07:25:17;17.43;;;15.83;;
12556;SDS011;6344;49.932;8.308;2022-09-12T07:27:44;18.93;;;17.20;;
12556;SDS011;6344;49.932;8.308;2022-09-12T07:30:11;18.47;;;16.67;;
12556;SDS011;6344;49.932;8.308;2022-09-12T07:32:37;17.67;;;15.97;;
12556;SDS011;6344;49.932;8.308;2022-09-12T07:35:06;18.17;;;16.57;;
12556;SDS011;6344;49.932;8.308;2022-09-12T07:37:33;17.63;;;16.23;;
12556;SDS011;6344;49.932;8.308;2022-09-12T07:39:59;19.10;;;17.30;;
12556;SDS011;6344;49.932;8.308;2022-09-12T07:42:27;16.83;;;15.23;;
12556;SDS011;6344;49.932;8.308;2022-09-12T07:44:54;18.40;;;16.80;;
12556;SDS011;6344;49.932;8.308;2022-09-12T07:47:21;17.20;;;15.33;;
12556;SDS011;6344;49.932;8.308;2022-09-12T07:49:48;18.23;;;16.53;;
12556;SDS011;6344;49.932;8.308;2022-09-12T07:52:16;17.43;;;16.03;;
12556;SDS011;6344;49.932;8.308;2022-09-12T07:54:42;18.90;;;17.30;;
12556;SDS011;6344;49.932;8.308;2022-09-12T07:57:09;19.17;;;17.37;;
12556;SDS011;6344;49.932;8.308;2022-09-12T07:59:36;18.27;;;16.57;;
12556;SDS011;6344;49.932;8.308;2022-09-12T08:02:08;18.63;;;17.03;;
12556;SDS011;6344;49.932;8.308;2022-09-12T08:04:38;18.07;;;16.00;;
12556;SDS011;6344;49.932;8.308;2022-09-12T08:07:06;18.70;;;17.07;;
12556;SDS011;6344;49.932;8.308;2022-09-12T08:09:34;18.67;;;17.10;;
12556;SDS011;6344;49.932;8.308;2022-09-12T08:12:01;18.80;;;17.20;;
12556;SDS011;6344;49.932;8.308;2022-09-12T08:14:27;19.10;;;17.40;;
12556;SDS011;6344;49.932;8.308;2022-09-12T08:16:54;18.67;;;16.97;;
12556;SDS011;6344;49.932;8.308;2022-09-12T08:19:21;18.20;;;16.80;;
12556;SDS011;6344;49.932;8.308;2022-09-12T08:21:47;16.83;;;15.33;;
12556;SDS011;6344;49.932;8.308;2022-09-12T08:24:14;18.87;;;17.07;;
12556;SDS011;6344;49.932;8.308;2022-09-12T08:26:42;21.20;;;17.20;;
12556;SDS011;6344;49.932;8.308;2022-09-12T08:29:09;18.33;;;16.73;;
12556;SDS011;6344;49.932;8.308;2022-09-12T08:31:36;17.27;;;15.63;;
12556;SDS011;6344;49.932;8.308;2022-09-12T08:34:05;17.07;;;15.57;;
12556;SDS011;6344;49.932;8.308;2022-09-12T08:36:32;16.90;;;15.30;;
12556;SDS011;6344;49.932;8.308;2022-09-12T08:39:00;16.37;;;14.97;;
12556;SDS011;6344;49.932;8.308;2022-09-12T08:41:29;15.57;;;14.37;;
12556;SDS011;6344;49.932;8.308;2022-09-12T08:44:13;16.83;;;15.23;;
12556;SDS011;6344;49.932;8.308;2022-09-12T08:47:15;16.57;;;15.20;;
12556;SDS011;6344;49.932;8.308;2022-09-12T08:49:47;17.27;;;15.77;;
12556;SDS011;6344;49.932;8.308;2022-09-12T08:52:23;16.03;;;14.60;;
12556;SDS011;6344;49.932;8.308;2022-09-12T08:54:54;15.47;;;14.10;;
12556;SDS011;6344;49.932;8.308;2022-09-12T08:57:22;15.07;;;13.70;;
12556;SDS011;6344;49.932;8.308;2022-09-12T08:59:50;15.40;;;14.20;;
12556;SDS011;6344;49.932;8.308;2022-09-12T09:02:31;15.33;;;14.13;;
12556;SDS011;6344;49.932;8.308;2022-09-12T09:05:12;15.63;;;14.53;;
12556;SDS011;6344;49.932;8.308;2022-09-12T09:07:52;15.43;;;14.13;;
12556;SDS011;6344;49.932;8.308;2022-09-12T09:10:46;15.60;;;14.10;;
12556;SDS011;6344;49.932;8.308;2022-09-12T09:13:21;14.67;;;13.50;;
12556;SDS011;6344;49.932;8.308;2022-09-12T09:16:15;15.33;;;14.10;;
12556;SDS011;6344;49.932;8.308;2022-09-12T09:18:49;14.73;;;13.37;;
12556;SDS011;6344;49.932;8.308;2022-09-12T09:21:19;13.97;;;12.87;;
12556;SDS011;6344;49.932;8.308;2022-09-12T09:23:49;14.77;;;13.57;;
12556;SDS011;6344;49.932;8.308;2022-09-12T09:26:20;15.17;;;13.97;;
12556;SDS011;6344;49.932;8.308;2022-09-12T09:28:54;16.57;;;15.20;;
12556;SDS011;6344;49.932;8.308;2022-09-12T09:31:29;16.30;;;15.00;;
12556;SDS011;6344;49.932;8.308;2022-09-12T09:33:59;15.00;;;13.67;;
12556;SDS011;6344;49.932;8.308;2022-09-12T09:36:30;14.97;;;13.67;;
12556;SDS011;6344;49.932;8.308;2022-09-12T09:39:08;14.40;;;13.30;;
12556;SDS011;6344;49.932;8.308;2022-09-12T09:41:51;14.30;;;13.30;;
12556;SDS011;6344;49.932;8.308;2022-09-12T09:44:36;14.53;;;13.37;;
12556;SDS011;6344;49.932;8.308;2022-09-12T09:47:04;15.07;;;13.97;;
12556;SDS011;6344;49.932;8.308;2022-09-12T09:49:34;14.53;;;13.43;;
12556;SDS011;6344;49.932;8.308;2022-09-12T09:52:01;15.97;;;14.77;;
12556;SDS011;6344;49.932;8.308;2022-09-12T09:54:31;16.00;;;14.80;;
12556;SDS011;6344;49.932;8.308;2022-09-12T09:57:01;14.90;;;13.80;;
12556;SDS011;6344;49.932;8.308;2022-09-12T09:59:30;13.70;;;12.70;;
12556;SDS011;6344;49.932;8.308;2022-09-12T10:01:58;15.13;;;14.03;;
12556;SDS011;6344;49.932;8.308;2022-09-12T10:04:30;14.67;;;13.50;;
12556;SDS011;6344;49.932;8.308;2022-09-12T10:06:58;14.53;;;13.50;;
12556;SDS011;6344;49.932;8.308;2022-09-12T10:09:27;15.10;;;13.87;;
12556;SDS011;6344;49.932;8.308;2022-09-12T10:11:57;13.53;;;12.53;;
12556;SDS011;6344;49.932;8.308;2022-09-12T10:14:28;14.10;;;13.10;;
12556;SDS011;6344;49.932;8.308;2022-09-12T10:16:59;11.27;;;10.47;;
12556;SDS011;6344;49.932;8.308;2022-09-12T10:19:33;12.13;;;11.33;;
12556;SDS011;6344;49.932;8.308;2022-09-12T10:22:02;12.90;;;11.83;;
12556;SDS011;6344;49.932;8.308;2022-09-12T10:24:31;13.73;;;12.73;;
12556;SDS011;6344;49.932;8.308;2022-09-12T10:27:08;12.83;;;11.80;;
12556;SDS011;6344;49.932;8.308;2022-09-12T10:29:41;10.53;;;9.83;;
12556;SDS011;6344;49.932;8.308;2022-09-12T10:32:12;8.53;;;8.00;;
12556;SDS011;6344;49.932;8.308;2022-09-12T10:34:55;8.83;;;8.33;;
12556;SDS011;6344;49.932;8.308;2022-09-12T10:37:28;9.00;;;8.50;;
12556;SDS011;6344;49.932;8.308;2022-09-12T10:39:57;9.57;;;8.93;;
12556;SDS011;6344;49.932;8.308;2022-09-12T10:42:41;7.57;;;7.10;;
12556;SDS011;6344;49.932;8.308;2022-09-12T10:45:21;8.07;;;7.60;;
12556;SDS011;6344;49.932;8.308;2022-09-12T10:47:50;8.03;;;7.53;;
12556;SDS011;6344;49.932;8.308;2022-09-12T10:50:24;8.47;;;7.97;;
12556;SDS011;6344;49.932;8.308;2022-09-12T10:52:53;9.00;;;8.23;;
12556;SDS011;6344;49.932;8.308;2022-09-12T10:55:21;8.13;;;7.60;;
12556;SDS011;6344;49.932;8.308;2022-09-12T11:01:03;8.90;;;8.30;;
12556;SDS011;6344;49.932;8.308;2022-09-12T11:03:40;9.27;;;8.67;;
12556;SDS011;6344;49.932;8.308;2022-09-12T11:06:20;9.23;;;8.53;;
12556;SDS011;6344;49.932;8.308;2022-09-12T11:08:58;8.10;;;7.70;;
12556;SDS011;6344;49.932;8.308;2022-09-12T11:11:40;8.70;;;8.20;;
12556;SDS011;6344;49.932;8.308;2022-09-12T11:14:21;8.40;;;7.80;;
12556;SDS011;6344;49.932;8.308;2022-09-12T11:16:58;8.00;;;7.57;;
12556;SDS011;6344;49.932;8.308;2022-09-12T11:19:41;8.27;;;7.67;;
12556;SDS011;6344;49.932;8.308;2022-09-12T11:22:21;8.53;;;8.03;;
12556;SDS011;6344;49.932;8.308;2022-09-12T11:25:12;7.60;;;7.13;;
12556;SDS011;6344;49.932;8.308;2022-09-12T11:27:53;8.50;;;7.70;;
12556;SDS011;6344;49.932;8.308;2022-09-12T11:30:46;7.77;;;7.17;;
12556;SDS011;6344;49.932;8.308;2022-09-12T11:33:25;8.37;;;7.87;;
12556;SDS011;6344;49.932;8.308;2022-09-12T11:36:03;8.07;;;7.57;;
12556;SDS011;6344;49.932;8.308;2022-09-12T11:38:40;7.60;;;7.20;;
12556;SDS011;6344;49.932;8.308;2022-09-12T11:41:18;7.57;;;7.07;;
12556;SDS011;6344;49.932;8.308;2022-09-12T11:43:49;7.63;;;7.23;;
12556;SDS011;6344;49.932;8.308;2022-09-12T11:46:22;7.43;;;6.97;;
12556;SDS011;6344;49.932;8.308;2022-09-12T11:48:56;7.70;;;7.13;;
12556;SDS011;6344;49.932;8.308;2022-09-12T11:51:25;7.60;;;7.10;;
12556;SDS011;6344;49.932;8.308;2022-09-12T11:56:45;8.20;;;7.70;;
12556;SDS011;6344;49.932;8.308;2022-09-12T11:59:17;8.10;;;7.50;;
12556;SDS011;6344;49.932;8.308;2022-09-12T12:01:52;9.27;;;8.60;;
12556;SDS011;6344;49.932;8.308;2022-09-12T12:04:24;7.90;;;7.50;;
12556;SDS011;6344;49.932;8.308;2022-09-12T12:07:00;9.23;;;8.57;;
12556;SDS011;6344;49.932;8.308;2022-09-12T12:09:31;8.37;;;7.87;;
12556;SDS011;6344;49.932;8.308;2022-09-12T12:11:59;8.90;;;8.40;;
12556;SDS011;6344;49.932;8.308;2022-09-12T12:14:29;7.30;;;6.80;;
12556;SDS011;6344;49.932;8.308;2022-09-12T12:17:03;6.13;;;5.80;;
12556;SDS011;6344;49.932;8.308;2022-09-12T12:19:37;6.03;;;5.73;;
12556;SDS011;6344;49.932;8.308;2022-09-12T12:22:05;6.60;;;6.30;;
12556;SDS011;6344;49.932;8.308;2022-09-12T12:24:34;6.90;;;6.50;;
12556;SDS011;6344;49.932;8.308;2022-09-12T12:27:44;5.90;;;5.60;;
12556;SDS011;6344;49.932;8.308;2022-09-12T12:36:32;5.40;;;5.20;;
12556;SDS011;6344;49.932;8.308;2022-09-12T12:48:28;6.03;;;5.73;;
12556;SDS011;6344;49.932;8.308;2022-09-12T12:51:14;5.20;;;4.90;;
12556;SDS011;6344;49.932;8.308;2022-09-12T12:53:51;5.63;;;5.13;;
12556;SDS011;6344;49.932;8.308;2022-09-12T12:56:24;5.67;;;5.37;;
12556;SDS011;6344;49.932;8.308;2022-09-12T12:58:56;5.67;;;5.37;;
12556;SDS011;6344;49.932;8.308;2022-09-12T13:01:26;5.37;;;5.07;;
12556;SDS011;6344;49.932;8.308;2022-09-12T13:03:54;4.50;;;4.30;;
12556;SDS011;6344;49.932;8.308;2022-09-12T13:06:28;4.70;;;4.47;;
12556;SDS011;6344;49.932;8.308;2022-09-12T13:08:59;4.80;;;4.60;;
12556;SDS011;6344;49.932;8.308;2022-09-12T13:11:30;4.80;;;4.60;;
12556;SDS011;6344;49.932;8.308;2022-09-12T13:13:59;3.93;;;3.73;;
12556;SDS011;6344;49.932;8.308;2022-09-12T13:16:34;4.60;;;4.40;;
12556;SDS011;6344;49.932;8.308;2022-09-12T13:19:03;4.23;;;4.03;;
12556;SDS011;6344;49.932;8.308;2022-09-12T13:21:32;4.90;;;4.60;;
12556;SDS011;6344;49.932;8.308;2022-09-12T13:24:00;5.20;;;5.00;;
12556;SDS011;6344;49.932;8.308;2022-09-12T13:26:31;5.67;;;5.30;;
12556;SDS011;6344;49.932;8.308;2022-09-12T13:29:10;5.20;;;5.00;;
12556;SDS011;6344;49.932;8.308;2022-09-12T13:31:41;6.63;;;6.23;;
12556;SDS011;6344;49.932;8.308;2022-09-12T13:34:09;5.10;;;4.90;;
12556;SDS011;6344;49.932;8.308;2022-09-12T13:36:41;4.77;;;4.57;;
12556;SDS011;6344;49.932;8.308;2022-09-12T13:39:18;5.10;;;4.80;;
12556;SDS011;6344;49.932;8.308;2022-09-12T13:42:02;5.03;;;4.67;;
12556;SDS011;6344;49.932;8.308;2022-09-12T13:44:47;5.10;;;4.80;;
12556;SDS011;6344;49.932;8.308;2022-09-12T13:47:18;5.03;;;4.60;;
12556;SDS011;6344;49.932;8.308;2022-09-12T13:49:50;5.00;;;4.80;;
12556;SDS011;6344;49.932;8.308;2022-09-12T13:52:18;5.60;;;5.20;;
12556;SDS011;6344;49.932;8.308;2022-09-12T13:54:47;5.20;;;4.90;;
12556;SDS011;6344;49.932;8.308;2022-09-12T13:57:27;4.50;;;4.30;;
12556;SDS011;6344;49.932;8.308;2022-09-12T13:59:56;5.13;;;4.83;;
12556;SDS011;6344;49.932;8.308;2022-09-12T14:02:26;5.90;;;5.60;;
12556;SDS011;6344;49.932;8.308;2022-09-12T14:04:55;4.60;;;4.30;;
12556;SDS011;6344;49.932;8.308;2022-09-12T14:07:36;6.53;;;6.13;;
12556;SDS011;6344;49.932;8.308;2022-09-12T14:10:16;6.10;;;5.80;;
12556;SDS011;6344;49.932;8.308;2022-09-12T14:12:48;5.33;;;4.93;;
12556;SDS011;6344;49.932;8.308;2022-09-12T14:15:18;5.60;;;5.30;;
12556;SDS011;6344;49.932;8.308;2022-09-12T14:17:52;5.90;;;5.40;;
12556;SDS011;6344;49.932;8.308;2022-09-12T14:20:24;6.07;;;5.77;;
12556;SDS011;6344;49.932;8.308;2022-09-12T14:22:55;5.33;;;5.10;;
12556;SDS011;6344;49.932;8.308;2022-09-12T14:25:33;6.23;;;5.87;;
12556;SDS011;6344;49.932;8.308;2022-09-12T14:28:03;5.77;;;5.47;;
12556;SDS011;6344;49.932;8.308;2022-09-12T14:30:30;6.53;;;6.03;;
12556;SDS011;6344;49.932;8.308;2022-09-12T14:33:12;6.37;;;6.07;;
12556;SDS011;6344;49.932;8.308;2022-09-12T14:35:43;5.50;;;5.20;;
12556;SDS011;6344;49.932;8.308;2022-09-12T14:38:13;5.57;;;5.20;;
12556;SDS011;6344;49.932;8.308;2022-09-12T14:40:47;5.47;;;5.13;;
12556;SDS011;6344;49.932;8.308;2022-09-12T14:43:17;5.23;;;5.03;;
12556;SDS011;6344;49.932;8.308;2022-09-12T14:45:53;5.30;;;5.00;;
12556;SDS011;6344;49.932;8.308;2022-09-12T14:48:24;5.60;;;5.20;;
12556;SDS011;6344;49.932;8.308;2022-09-12T14:50:54;6.00;;;5.60;;
12556;SDS011;6344;49.932;8.308;2022-09-12T14:53:22;6.27;;;5.90;;
12556;SDS011;6344;49.932;8.308;2022-09-12T14:55:56;6.23;;;5.83;;
12556;SDS011;6344;49.932;8.308;2022-09-12T14:58:25;6.10;;;5.70;;
12556;SDS011;6344;49.932;8.308;2022-09-12T15:00:57;6.37;;;5.87;;
12556;SDS011;6344;49.932;8.308;2022-09-12T15:03:30;4.93;;;4.63;;
12556;SDS011;6344;49.932;8.308;2022-09-12T15:06:00;6.10;;;5.73;;
12556;SDS011;6344;49.932;8.308;2022-09-12T15:08:29;6.33;;;6.00;;
12556;SDS011;6344;49.932;8.308;2022-09-12T15:10:56;5.67;;;5.30;;
12556;SDS011;6344;49.932;8.308;2022-09-12T15:13:23;5.17;;;4.87;;
12556;SDS011;6344;49.932;8.308;2022-09-12T15:15:52;5.70;;;5.40;;
12556;SDS011;6344;49.932;8.308;2022-09-12T15:18:20;6.67;;;6.00;;
12556;SDS011;6344;49.932;8.308;2022-09-12T15:20:51;5.90;;;5.60;;
12556;SDS011;6344;49.932;8.308;2022-09-12T15:23:27;5.53;;;5.23;;
12556;SDS011;6344;49.932;8.308;2022-09-12T15:25:57;4.90;;;4.70;;
12556;SDS011;6344;49.932;8.308;2022-09-12T15:28:25;5.60;;;5.30;;
12556;SDS011;6344;49.932;8.308;2022-09-12T15:30:52;4.90;;;4.70;;
12556;SDS011;6344;49.932;8.308;2022-09-12T15:33:21;4.87;;;4.57;;
12556;SDS011;6344;49.932;8.308;2022-09-12T15:35:51;5.57;;;5.10;;
12556;SDS011;6344;49.932;8.308;2022-09-12T15:38:18;5.40;;;5.20;;
12556;SDS011;6344;49.932;8.308;2022-09-12T15:40:48;4.80;;;4.60;;
12556;SDS011;6344;49.932;8.308;2022-09-12T15:43:17;6.40;;;4.70;;
12556;SDS011;6344;49.932;8.308;2022-09-12T15:45:44;5.50;;;5.20;;
12556;SDS011;6344;49.932;8.308;2022-09-12T15:48:11;4.77;;;4.57;;
12556;SDS011;6344;49.932;8.308;2022-09-12T15:50:39;4.87;;;4.57;;
12556;SDS011;6344;49.932;8.308;2022-09-12T15:53:09;4.40;;;4.10;;